createdAt,value
2019-04-25T00:01:31.312Z,15.30
2019-04-25T00:04:01.889Z,15.20
2019-04-25T00:06:32.070Z,15.20
2019-04-25T00:09:01.878Z,15.20
2019-04-25T00:11:31.244Z,15.20
2019-04-25T00:14:01.458Z,15.20
2019-04-25T00:16:31.700Z,15.20
2019-04-25T00:19:01.744Z,15.20
2019-04-25T00:21:42.278Z,15.10
2019-04-25T00:24:12.832Z,15.10
2019-04-25T00:26:44.060Z,15.00
2019-04-25T00:29:13.284Z,15.00
2019-04-25T00:31:43.640Z,15.00
2019-04-25T00:34:12.191Z,15.00
2019-04-25T00:36:43.048Z,14.90
2019-04-25T00:39:11.904Z,14.80
2019-04-25T00:41:42.367Z,14.70
2019-04-25T00:44:12.024Z,14.70
2019-04-25T00:46:43.312Z,14.70
2019-04-25T00:49:12.166Z,14.60
2019-04-25T00:51:42.681Z,14.60
2019-04-25T00:54:11.882Z,14.60
2019-04-25T00:56:43.233Z,14.50
2019-04-25T00:59:17.983Z,14.50
2019-04-25T01:02:07.598Z,14.40
2019-04-25T01:04:36.053Z,14.40
2019-04-25T01:07:04.604Z,14.40
2019-04-25T01:09:33.037Z,14.40
2019-04-25T01:12:03.903Z,14.40
2019-04-25T01:14:31.693Z,14.30
2019-04-25T01:17:01.857Z,14.40
2019-04-25T01:19:30.414Z,14.40
2019-04-25T01:21:58.929Z,14.30
2019-04-25T01:24:27.401Z,14.30
2019-04-25T01:26:55.934Z,14.30
2019-04-25T01:29:24.466Z,14.30
2019-04-25T01:31:54.425Z,14.30
2019-04-25T01:34:25.808Z,14.20
2019-04-25T01:36:56.137Z,14.20
2019-04-25T01:39:26.935Z,14.20
2019-04-25T01:41:57.455Z,14.20
2019-04-25T01:44:27.684Z,14.20
2019-04-25T01:46:56.527Z,14.10
2019-04-25T01:49:25.322Z,14.10
2019-04-25T01:51:54.403Z,14.10
2019-04-25T01:54:24.112Z,14.10
2019-04-25T01:56:54.655Z,14.10
2019-04-25T01:59:23.748Z,14.10
2019-04-25T02:01:54.332Z,14.10
2019-04-25T02:04:23.198Z,14.00
2019-04-25T02:06:53.688Z,14.00
2019-04-25T02:09:23.301Z,14.00
2019-04-25T02:11:54.737Z,14.00
2019-04-25T02:14:24.028Z,13.90
2019-04-25T02:16:55.036Z,13.90
2019-04-25T02:19:24.170Z,13.90
2019-04-25T02:21:54.409Z,13.80
2019-04-25T02:24:23.719Z,13.80
2019-04-25T02:26:54.818Z,13.80
2019-04-25T02:29:23.528Z,13.80
2019-04-25T02:31:53.558Z,13.80
2019-04-25T02:34:24.842Z,13.80
2019-04-25T02:36:55.488Z,13.80
2019-04-25T02:39:24.583Z,13.70
2019-04-25T02:41:56.057Z,13.70
2019-04-25T02:44:24.725Z,13.70
2019-04-25T02:47:14.784Z,13.70
2019-04-25T02:49:44.766Z,13.70
2019-04-25T02:52:17.800Z,13.60
2019-04-25T02:54:45.061Z,13.60
2019-04-25T02:57:14.625Z,13.60
2019-04-25T02:59:45.144Z,13.60
2019-04-25T03:02:15.412Z,13.60
2019-04-25T03:04:44.623Z,13.60
2019-04-25T03:07:16.618Z,13.50
2019-04-25T03:09:45.079Z,13.50
2019-04-25T03:12:26.765Z,13.50
2019-04-25T03:14:44.655Z,13.50
2019-04-25T03:17:14.289Z,13.50
2019-04-25T03:19:47.405Z,13.50
2019-04-25T03:22:17.612Z,13.50
2019-04-25T03:24:46.113Z,13.50
2019-04-25T03:27:14.523Z,13.50
2019-04-25T03:29:44.347Z,13.50
2019-04-25T03:32:16.451Z,13.50
2019-04-25T03:34:43.514Z,13.50
2019-04-25T03:37:13.638Z,13.40
2019-04-25T03:39:43.657Z,13.40
2019-04-25T03:42:12.114Z,13.40
2019-04-25T03:44:40.563Z,13.40
2019-04-25T03:47:09.763Z,13.40
2019-04-25T03:49:38.314Z,13.40
2019-04-25T03:52:06.896Z,13.30
2019-04-25T03:54:35.379Z,13.30
2019-04-25T03:57:05.284Z,13.30
2019-04-25T03:59:33.936Z,13.30
2019-04-25T04:02:03.087Z,13.30
2019-04-25T04:04:33.559Z,13.20
2019-04-25T04:07:04.416Z,13.20
2019-04-25T04:09:33.710Z,13.20
2019-04-25T04:12:04.270Z,13.20
2019-04-25T04:14:33.846Z,13.20
2019-04-25T04:17:16.120Z,13.10
2019-04-25T04:19:46.190Z,13.10
2019-04-25T04:22:16.289Z,13.10
2019-04-25T04:24:46.387Z,13.10
2019-04-25T04:27:16.838Z,13.10
2019-04-25T04:29:45.306Z,13.10
2019-04-25T04:32:14.865Z,13.10
2019-04-25T04:34:45.569Z,13.10
2019-04-25T04:37:15.811Z,13.10
2019-04-25T04:39:44.264Z,13.10
2019-04-25T04:42:13.988Z,13.10
2019-04-25T04:44:43.756Z,13.00
2019-04-25T04:47:14.076Z,13.00
2019-04-25T04:49:43.964Z,13.10
2019-04-25T04:52:14.311Z,13.10
2019-04-25T04:54:43.970Z,13.10
2019-04-25T04:57:23.113Z,13.10
2019-04-25T04:59:43.831Z,13.10
2019-04-25T05:02:17.374Z,13.00
2019-04-25T05:04:50.217Z,13.00
2019-04-25T05:07:38.000Z,13.00
2019-04-25T05:10:06.655Z,12.90
2019-04-25T05:12:35.189Z,12.90
2019-04-25T05:15:07.268Z,13.00
2019-04-25T05:17:35.766Z,13.00
2019-04-25T05:20:05.912Z,13.00
2019-04-25T05:22:34.356Z,13.00
2019-04-25T05:25:03.482Z,13.10
2019-04-25T05:27:42.634Z,13.10
2019-04-25T05:30:03.927Z,13.10
2019-04-25T05:32:34.149Z,13.10
2019-04-25T05:35:03.338Z,13.20
2019-04-25T05:37:33.395Z,13.20
2019-04-25T05:40:03.698Z,13.20
2019-04-25T05:42:50.117Z,13.30
2019-04-25T05:45:21.174Z,13.30
2019-04-25T05:47:49.836Z,13.40
2019-04-25T05:50:18.268Z,13.40
2019-04-25T05:52:46.709Z,13.50
2019-04-25T05:55:17.335Z,13.50
2019-04-25T05:57:49.880Z,13.50
2019-04-25T06:00:16.654Z,13.60
2019-04-25T06:02:46.258Z,13.70
2019-04-25T06:05:14.997Z,13.80
2019-04-25T06:07:43.407Z,13.80
2019-04-25T06:10:22.517Z,13.90
2019-04-25T06:12:55.551Z,14.00
2019-04-25T06:15:26.225Z,14.00
2019-04-25T06:17:56.280Z,14.10
2019-04-25T06:20:29.144Z,14.10
2019-04-25T06:22:59.200Z,14.20
2019-04-25T06:25:32.967Z,14.30
2019-04-25T06:28:09.100Z,14.30
2019-04-25T06:30:37.552Z,14.40
2019-04-25T06:33:05.956Z,14.50
2019-04-25T06:35:35.847Z,14.50
2019-04-25T06:38:04.533Z,14.60
2019-04-25T06:40:34.511Z,14.60
2019-04-25T06:43:03.400Z,14.70
2019-04-25T06:45:50.175Z,14.80
2019-04-25T06:48:24.998Z,14.80
2019-04-25T06:50:53.780Z,14.90
2019-04-25T06:53:23.094Z,15.00
2019-04-25T06:55:53.607Z,15.00
2019-04-25T06:58:23.312Z,15.10
2019-04-25T07:00:58.684Z,15.10
2019-04-25T07:03:23.341Z,15.10
2019-04-25T07:05:53.550Z,15.20
2019-04-25T07:08:23.748Z,15.20
2019-04-25T07:10:55.119Z,15.30
2019-04-25T07:13:23.764Z,15.30
2019-04-25T07:15:53.387Z,15.40
2019-04-25T07:18:23.546Z,15.50
2019-04-25T07:20:53.374Z,15.50
2019-04-25T07:23:23.529Z,15.60
2019-04-25T07:25:53.893Z,15.70
2019-04-25T07:28:36.938Z,15.80
2019-04-25T07:31:09.874Z,15.90
2019-04-25T07:33:48.741Z,15.90
2019-04-25T07:36:17.219Z,16.10
2019-04-25T07:38:45.725Z,16.20
2019-04-25T07:41:16.223Z,16.30
2019-04-25T07:43:44.336Z,16.40
2019-04-25T07:46:13.499Z,16.50
2019-04-25T07:48:43.691Z,16.60
2019-04-25T07:51:15.878Z,16.70
2019-04-25T07:53:43.598Z,16.80
2019-04-25T07:56:14.009Z,16.90
2019-04-25T07:58:50.573Z,17.00
2019-04-25T08:01:14.760Z,17.10
2019-04-25T08:03:43.957Z,17.20
2019-04-25T08:06:13.740Z,17.20
2019-04-25T08:08:44.033Z,17.30
2019-04-25T08:11:14.092Z,17.40
2019-04-25T08:13:50.097Z,17.50
2019-04-25T08:16:20.261Z,17.60
2019-04-25T08:18:49.753Z,17.70
2019-04-25T08:21:18.332Z,17.70
2019-04-25T08:23:47.741Z,17.80
2019-04-25T08:26:16.236Z,17.90
2019-04-25T08:28:54.928Z,18.00
2019-04-25T08:31:15.002Z,18.10
2019-04-25T08:33:46.364Z,18.10
2019-04-25T08:36:13.737Z,18.20
2019-04-25T08:38:44.392Z,18.30
2019-04-25T08:41:13.903Z,18.40
2019-04-25T08:43:43.668Z,18.50
2019-04-25T08:46:13.984Z,18.60
2019-04-25T08:49:02.216Z,18.70
2019-04-25T08:51:33.926Z,18.80
2019-04-25T08:54:03.925Z,18.90
2019-04-25T08:56:35.146Z,19.00
2019-04-25T08:59:07.987Z,19.10
2019-04-25T09:01:39.488Z,19.20
2019-04-25T09:04:13.320Z,19.30
2019-04-25T09:06:42.300Z,19.30
2019-04-25T09:09:10.788Z,19.40
2019-04-25T09:11:40.128Z,19.40
2019-04-25T09:14:08.645Z,19.50
2019-04-25T09:16:37.837Z,19.50
2019-04-25T09:19:06.461Z,19.60
2019-04-25T09:21:36.548Z,19.70
2019-04-25T09:24:05.162Z,19.70
2019-04-25T09:26:34.913Z,19.80
2019-04-25T09:29:16.015Z,19.90
2019-04-25T09:31:37.087Z,19.90
2019-04-25T09:34:04.443Z,20.00
2019-04-25T09:36:33.613Z,20.10
2019-04-25T09:39:03.851Z,20.20
2019-04-25T09:41:33.601Z,20.30
2019-04-25T09:44:04.516Z,20.40
2019-04-25T09:46:35.905Z,20.50
2019-04-25T09:49:18.509Z,20.60
2019-04-25T09:51:51.372Z,20.70
2019-04-25T09:54:36.306Z,20.70
2019-04-25T09:57:23.402Z,20.80
2019-04-25T09:59:53.253Z,20.90
2019-04-25T10:02:21.977Z,20.90
2019-04-25T10:04:50.408Z,20.90
2019-04-25T10:07:18.975Z,21.00
2019-04-25T10:09:48.240Z,21.10
2019-04-25T10:12:16.834Z,21.10
2019-04-25T10:15:04.689Z,21.20
2019-04-25T10:17:33.766Z,21.30
2019-04-25T10:20:02.411Z,21.30
2019-04-25T10:22:30.835Z,21.40
2019-04-25T10:25:00.801Z,21.50
2019-04-25T10:27:29.445Z,21.60
2019-04-25T10:29:57.874Z,21.70
2019-04-25T10:32:26.370Z,21.80
2019-04-25T10:34:54.856Z,21.90
2019-04-25T10:37:23.475Z,22.00
2019-04-25T10:39:53.951Z,22.10
2019-04-25T10:42:23.878Z,22.20
2019-04-25T10:44:56.227Z,22.30
2019-04-25T10:47:22.529Z,22.40
2019-04-25T10:49:53.303Z,22.50
2019-04-25T10:52:23.252Z,22.70
2019-04-25T10:54:52.631Z,22.80
2019-04-25T10:57:24.793Z,22.90
2019-04-25T11:00:05.631Z,23.10
2019-04-25T11:02:24.213Z,23.20
2019-04-25T11:04:59.759Z,23.30
2019-04-25T11:07:28.560Z,23.40
2019-04-25T11:09:57.032Z,23.50
2019-04-25T11:12:25.534Z,23.70
2019-04-25T11:14:56.134Z,23.80
2019-04-25T11:17:24.293Z,23.90
2019-04-25T11:19:54.277Z,24.00
2019-04-25T11:22:23.979Z,24.10
2019-04-25T11:24:53.010Z,24.30
2019-04-25T11:27:21.681Z,24.30
2019-04-25T11:29:50.739Z,24.50
2019-04-25T11:32:20.877Z,24.70
2019-04-25T11:34:49.398Z,24.80
2019-04-25T11:37:18.911Z,25.00
2019-04-25T11:40:04.355Z,25.10
2019-04-25T11:42:33.835Z,25.20
2019-04-25T11:45:04.842Z,25.30
2019-04-25T11:47:33.521Z,25.50
2019-04-25T11:50:03.858Z,25.50
2019-04-25T11:52:33.620Z,25.60
2019-04-25T11:55:04.063Z,25.70
2019-04-25T11:57:32.361Z,25.80
2019-04-25T12:00:00.810Z,25.90
2019-04-25T12:02:29.313Z,25.90
2019-04-25T12:04:58.092Z,26.00
2019-04-25T12:07:26.595Z,26.20
2019-04-25T12:09:55.664Z,26.20
2019-04-25T12:12:24.124Z,26.40
2019-04-25T12:14:54.147Z,26.40
2019-04-25T12:17:23.439Z,26.60
2019-04-25T12:19:53.590Z,26.70
2019-04-25T12:22:23.723Z,26.60
2019-04-25T12:24:52.376Z,26.60
2019-04-25T12:27:22.383Z,26.60
2019-04-25T12:29:50.813Z,26.60
2019-04-25T12:32:19.238Z,26.70
2019-04-25T12:34:47.692Z,26.80
2019-04-25T12:37:16.236Z,26.90
2019-04-25T12:39:44.752Z,27.00
2019-04-25T12:42:14.451Z,27.10
2019-04-25T12:45:00.873Z,27.20
2019-04-25T12:47:34.351Z,27.20
2019-04-25T12:50:04.050Z,27.30
2019-04-25T12:52:33.312Z,27.40
2019-04-25T12:55:02.561Z,27.50
2019-04-25T12:57:32.123Z,27.60
2019-04-25T13:00:00.573Z,27.70
2019-04-25T13:02:28.985Z,27.70
2019-04-25T13:04:59.063Z,27.70
2019-04-25T13:07:27.534Z,27.60
2019-04-25T13:09:56.025Z,27.70
2019-04-25T13:12:24.646Z,27.80
2019-04-25T13:14:53.201Z,27.80
2019-04-25T13:17:21.640Z,27.90
2019-04-25T13:19:50.115Z,27.90
2019-04-25T13:22:18.713Z,27.70
2019-04-25T13:24:47.204Z,27.60
2019-04-25T13:27:33.713Z,27.40
2019-04-25T13:30:15.529Z,27.40
2019-04-25T13:33:01.869Z,27.30
2019-04-25T13:35:37.765Z,27.20
2019-04-25T13:38:06.197Z,27.10
2019-04-25T13:40:34.700Z,27.00
2019-04-25T13:43:04.913Z,26.90
2019-04-25T13:45:33.581Z,26.80
2019-04-25T13:48:04.697Z,26.80
2019-04-25T13:50:32.147Z,26.70
2019-04-25T13:53:00.746Z,26.60
2019-04-25T13:55:30.087Z,26.60
2019-04-25T13:57:58.644Z,26.60
2019-04-25T14:00:27.762Z,26.70
2019-04-25T14:02:56.275Z,26.70
2019-04-25T14:05:26.016Z,26.70
2019-04-25T14:07:54.609Z,26.70
2019-04-25T14:10:25.015Z,26.60
2019-04-25T14:12:53.654Z,26.60
2019-04-25T14:15:25.303Z,26.60
2019-04-25T14:17:55.592Z,26.60
2019-04-25T14:20:26.473Z,26.60
2019-04-25T14:22:55.226Z,26.70
2019-04-25T14:25:26.207Z,26.70
2019-04-25T14:27:57.377Z,26.70
2019-04-25T14:30:28.372Z,26.80
2019-04-25T14:32:56.922Z,26.90
2019-04-25T14:35:25.436Z,27.00
2019-04-25T14:37:53.956Z,27.10
2019-04-25T14:40:24.717Z,27.20
2019-04-25T14:42:52.784Z,27.20
2019-04-25T14:45:21.587Z,27.10
2019-04-25T14:47:51.193Z,27.10
2019-04-25T14:50:19.597Z,27.10
2019-04-25T14:52:48.124Z,27.10
2019-04-25T14:55:36.480Z,27.10
2019-04-25T14:58:06.704Z,27.10
2019-04-25T15:00:42.383Z,27.00
2019-04-25T15:03:11.220Z,27.00
2019-04-25T15:05:42.155Z,27.00
2019-04-25T15:08:09.966Z,27.00
2019-04-25T15:10:38.468Z,27.00
2019-04-25T15:13:08.470Z,26.90
2019-04-25T15:15:36.970Z,26.80
2019-04-25T15:18:05.488Z,26.70
2019-04-25T15:20:34.446Z,26.70
2019-04-25T15:23:02.917Z,26.70
2019-04-25T15:25:31.866Z,26.60
2019-04-25T15:28:00.420Z,26.60
2019-04-25T15:30:30.501Z,26.60
2019-04-25T15:32:59.001Z,26.60
2019-04-25T15:35:44.964Z,26.60
2019-04-25T15:38:21.060Z,26.50
2019-04-25T15:40:56.950Z,26.50
2019-04-25T15:43:27.626Z,26.40
2019-04-25T15:46:14.134Z,26.40
2019-04-25T15:48:42.635Z,26.30
2019-04-25T15:51:11.117Z,26.30
2019-04-25T15:53:40.270Z,26.10
2019-04-25T15:56:08.756Z,26.10
2019-04-25T15:58:37.378Z,26.10
2019-04-25T16:01:06.571Z,26.00
2019-04-25T16:03:35.278Z,25.90
2019-04-25T16:06:04.014Z,25.90
2019-04-25T16:08:33.010Z,25.80
2019-04-25T16:11:01.529Z,25.80
2019-04-25T16:13:30.197Z,25.70
2019-04-25T16:15:58.747Z,25.60
2019-04-25T16:18:27.335Z,25.70
2019-04-25T16:20:56.163Z,25.60
2019-04-25T16:23:24.663Z,25.60
2019-04-25T16:25:53.122Z,25.50
2019-04-25T16:28:21.664Z,25.50
2019-04-25T16:30:50.174Z,25.50
2019-04-25T16:33:18.679Z,25.50
2019-04-25T16:35:47.136Z,25.60
2019-04-25T16:38:15.892Z,25.60
2019-04-25T16:40:44.367Z,25.60
2019-04-25T16:43:14.514Z,25.60
2019-04-25T16:45:43.057Z,25.50
2019-04-25T16:48:11.589Z,25.50
2019-04-25T16:50:40.088Z,25.40
2019-04-25T16:53:08.688Z,25.40
2019-04-25T16:55:37.232Z,25.40
2019-04-25T16:58:06.086Z,25.40
2019-04-25T17:00:48.067Z,25.30
2019-04-25T17:03:17.419Z,25.30
2019-04-25T17:05:46.017Z,25.30
2019-04-25T17:08:15.123Z,25.30
2019-04-25T17:10:43.623Z,25.20
2019-04-25T17:13:12.346Z,25.10
2019-04-25T17:15:51.482Z,25.10
2019-04-25T17:18:21.551Z,25.10
2019-04-25T17:21:06.571Z,25.00
2019-04-25T17:23:35.133Z,25.00
2019-04-25T17:26:05.151Z,24.90
2019-04-25T17:28:35.259Z,24.90
2019-04-25T17:31:05.460Z,24.80
2019-04-25T17:33:38.421Z,24.80
2019-04-25T17:36:17.551Z,24.80
2019-04-25T17:38:50.725Z,24.80
2019-04-25T17:41:19.161Z,24.70
2019-04-25T17:43:47.681Z,24.60
2019-04-25T17:46:17.731Z,24.60
2019-04-25T17:48:46.184Z,24.60
2019-04-25T17:51:14.625Z,24.60
2019-04-25T17:53:43.319Z,24.60
2019-04-25T17:56:12.056Z,24.60
2019-04-25T17:58:41.253Z,24.60
2019-04-25T18:01:11.791Z,24.50
2019-04-25T18:03:40.266Z,24.50
2019-04-25T18:06:08.725Z,24.50
2019-04-25T18:08:37.501Z,24.50
2019-04-25T18:11:06.737Z,24.40
2019-04-25T18:13:38.244Z,24.20
2019-04-25T18:16:09.892Z,24.20
2019-04-25T18:18:54.932Z,24.10
2019-04-25T18:21:23.527Z,24.00
2019-04-25T18:24:08.526Z,23.80
2019-04-25T18:26:45.548Z,23.60
2019-04-25T18:29:21.503Z,23.40
2019-04-25T18:31:49.941Z,23.20
2019-04-25T18:34:33.525Z,23.10
2019-04-25T18:37:03.623Z,22.90
2019-04-25T18:39:33.714Z,22.60
2019-04-25T18:42:18.579Z,22.50
2019-04-25T18:44:47.065Z,22.40
2019-04-25T18:47:15.559Z,22.30
2019-04-25T18:49:45.379Z,22.20
2019-04-25T18:52:15.567Z,22.00
2019-04-25T18:54:48.340Z,21.80
2019-04-25T18:57:37.485Z,21.70
2019-04-25T19:00:20.923Z,21.50
2019-04-25T19:03:09.231Z,21.50
2019-04-25T19:05:39.785Z,21.40
2019-04-25T19:08:09.342Z,21.20
2019-04-25T19:10:39.442Z,21.00
2019-04-25T19:13:12.855Z,20.90
2019-04-25T19:15:38.822Z,20.70
2019-04-25T19:18:08.322Z,20.50
2019-04-25T19:20:36.988Z,20.30
2019-04-25T19:23:05.455Z,20.20
2019-04-25T19:25:33.957Z,20.10
2019-04-25T19:28:02.530Z,20.20
2019-04-25T19:30:31.031Z,20.10
2019-04-25T19:32:59.606Z,20.10
2019-04-25T19:35:28.172Z,20.10
2019-04-25T19:37:56.775Z,20.00
2019-04-25T19:40:36.056Z,19.90
2019-04-25T19:43:12.099Z,19.80
2019-04-25T19:45:41.030Z,19.70
2019-04-25T19:48:09.714Z,19.60
2019-04-25T19:50:38.318Z,19.50
2019-04-25T19:53:06.921Z,19.40
2019-04-25T19:55:35.383Z,19.30
2019-04-25T19:58:03.899Z,19.20
2019-04-25T20:00:32.408Z,19.20
2019-04-25T20:03:05.495Z,19.20
2019-04-25T20:05:51.060Z,19.20
2019-04-25T20:08:29.751Z,19.10
2019-04-25T20:11:03.090Z,18.90
2019-04-25T20:13:31.620Z,18.70
2019-04-25T20:16:00.042Z,18.60
2019-04-25T20:18:28.611Z,18.50
2019-04-25T20:20:57.296Z,18.50
2019-04-25T20:23:27.394Z,18.50
2019-04-25T20:25:57.390Z,18.50
2019-04-25T20:28:26.277Z,18.50
2019-04-25T20:30:54.855Z,18.60
2019-04-25T20:33:23.426Z,18.50
2019-04-25T20:35:51.877Z,18.50
2019-04-25T20:38:20.421Z,18.50
2019-04-25T20:40:49.572Z,18.40
2019-04-25T20:43:18.165Z,18.40
2019-04-25T20:45:46.917Z,18.50
2019-04-25T20:48:16.593Z,18.50
2019-04-25T20:50:46.801Z,18.50
2019-04-25T20:53:15.404Z,18.40
2019-04-25T20:55:43.966Z,18.40
2019-04-25T20:58:12.411Z,18.20
2019-04-25T21:00:43.870Z,18.10
2019-04-25T21:03:12.405Z,18.00
2019-04-25T21:05:41.215Z,18.00
2019-04-25T21:08:09.725Z,18.00
2019-04-25T21:10:38.423Z,18.00
2019-04-25T21:13:08.490Z,17.90
2019-04-25T21:15:38.593Z,17.90
2019-04-25T21:18:08.675Z,17.90
2019-04-25T21:20:37.189Z,17.90
2019-04-25T21:23:05.778Z,18.00
2019-04-25T21:25:34.219Z,17.90
2019-04-25T21:28:02.654Z,17.80
2019-04-25T21:30:31.223Z,17.70
2019-04-25T21:32:59.750Z,17.70
2019-04-25T21:35:28.904Z,17.70
2019-04-25T21:37:57.551Z,17.70
2019-04-25T21:40:30.560Z,17.60
2019-04-25T21:43:00.866Z,17.60
2019-04-25T21:45:29.618Z,17.60
2019-04-25T21:47:58.754Z,17.60
2019-04-25T21:50:27.461Z,17.50
2019-04-25T21:52:56.920Z,17.50
2019-04-25T21:55:25.780Z,17.50
2019-04-25T21:57:55.153Z,17.40
2019-04-25T22:00:26.792Z,17.40
2019-04-25T22:02:55.825Z,17.30
2019-04-25T22:05:24.609Z,17.30
2019-04-25T22:07:54.215Z,17.30
2019-04-25T22:10:23.655Z,17.40
2019-04-25T22:12:52.173Z,17.30
2019-04-25T22:15:21.051Z,17.40
2019-04-25T22:17:49.498Z,17.40
2019-04-25T22:20:17.932Z,17.30
2019-04-25T22:22:46.368Z,17.30
2019-04-25T22:25:14.867Z,17.30
2019-04-25T22:27:43.814Z,17.30
2019-04-25T22:30:14.117Z,17.30
2019-04-25T22:32:47.083Z,17.30
2019-04-25T22:35:23.149Z,17.30
2019-04-25T22:37:51.596Z,17.20
2019-04-25T22:40:20.030Z,17.20
2019-04-25T22:42:48.508Z,17.20
2019-04-25T22:45:16.995Z,17.20
2019-04-25T22:47:45.506Z,17.20
2019-04-25T22:50:14.065Z,17.10
2019-04-25T22:52:42.516Z,17.10
2019-04-25T22:55:11.085Z,17.00
2019-04-25T22:57:39.919Z,17.00
2019-04-25T23:00:11.132Z,17.00
2019-04-25T23:02:44.226Z,16.90
2019-04-25T23:05:20.364Z,16.90
2019-04-25T23:07:48.831Z,16.90
2019-04-25T23:10:17.532Z,16.90
2019-04-25T23:12:45.982Z,16.90
2019-04-25T23:15:14.655Z,16.80
2019-04-25T23:17:43.084Z,16.80
2019-04-25T23:20:12.006Z,16.80
2019-04-25T23:22:40.429Z,16.70
2019-04-25T23:25:11.912Z,16.70
2019-04-25T23:27:57.873Z,16.60
2019-04-25T23:30:28.110Z,16.60
2019-04-25T23:32:56.539Z,16.60
2019-04-25T23:35:31.879Z,16.60
2019-04-25T23:37:55.112Z,16.50
2019-04-25T23:40:23.622Z,16.50
2019-04-25T23:42:52.250Z,16.50
2019-04-25T23:45:20.733Z,16.50
2019-04-25T23:47:49.176Z,16.40
2019-04-25T23:50:17.862Z,16.40
2019-04-25T23:52:46.290Z,16.30
2019-04-25T23:55:15.150Z,16.30
2019-04-25T23:57:43.687Z,16.30
